createdAt,value
2022-12-06T00:01:05.555Z,98039.25
2022-12-06T00:03:33.214Z,98029.09
2022-12-06T00:06:02.867Z,98035.06
2022-12-06T00:08:30.364Z,98037.44
2022-12-06T00:11:06.322Z,98042.59
2022-12-06T00:13:33.862Z,98046.28
2022-12-06T00:16:03.421Z,98042.06
2022-12-06T00:18:31.138Z,98044.53
2022-12-06T00:21:06.688Z,98041.75
2022-12-06T00:23:36.175Z,98040.06
2022-12-06T00:26:05.427Z,98042.72
2022-12-06T00:28:33.049Z,98041.22
2022-12-06T00:31:01.220Z,98035.63
2022-12-06T00:33:29.262Z,98042.19
2022-12-06T00:35:57.085Z,98036.31
2022-12-06T00:38:24.624Z,98032.47
2022-12-06T00:40:52.183Z,98031.97
2022-12-06T00:43:20.936Z,98031.53
2022-12-06T00:45:48.414Z,98029.09
2022-12-06T00:48:15.891Z,98025.44
2022-12-06T00:50:43.336Z,98024.13
2022-12-06T00:53:10.806Z,98013.03
2022-12-06T00:55:38.335Z,98022.25
2022-12-06T00:58:05.808Z,98011.22
2022-12-06T01:00:34.721Z,98012.59
2022-12-06T01:03:02.367Z,98014.06
2022-12-06T01:05:29.972Z,98007.38
2022-12-06T01:07:57.593Z,98011.53
2022-12-06T01:10:25.357Z,98007.25
2022-12-06T01:12:52.799Z,98015.28
2022-12-06T01:15:20.351Z,98012.25
2022-12-06T01:17:49.128Z,98013.28
2022-12-06T01:20:16.611Z,98013.09
2022-12-06T01:22:44.054Z,98002.41
2022-12-06T01:25:11.550Z,98006.66
2022-12-06T01:27:39.019Z,97997.44
2022-12-06T01:30:07.916Z,98000.47
2022-12-06T01:32:35.348Z,97999.63
2022-12-06T01:35:04.871Z,97995.81
2022-12-06T01:37:32.364Z,97994.31
2022-12-06T01:39:59.984Z,97996.13
2022-12-06T01:42:27.573Z,97997.94
2022-12-06T01:44:59.306Z,98000.47
2022-12-06T01:47:29.270Z,97997.03
2022-12-06T01:50:01.189Z,97993.28
2022-12-06T01:52:35.496Z,97989.59
2022-12-06T01:55:04.253Z,97986.09
2022-12-06T01:57:32.067Z,97991.06
2022-12-06T01:59:59.950Z,97993.19
2022-12-06T02:02:27.966Z,97983.06
2022-12-06T02:04:56.391Z,97982.72
2022-12-06T02:07:25.224Z,97984.66
2022-12-06T02:09:55.661Z,97981.66
2022-12-06T02:12:23.121Z,97975.28
2022-12-06T02:14:54.900Z,97972.16
2022-12-06T02:17:34.352Z,97979.38
2022-12-06T02:20:09.660Z,97967.75
2022-12-06T02:22:59.932Z,97961.03
2022-12-06T02:25:51.013Z,97961.16
2022-12-06T02:28:44.566Z,97965.41
2022-12-06T02:31:16.879Z,97954.22
2022-12-06T02:33:49.501Z,97965.06
2022-12-06T02:36:26.086Z,97956.94
2022-12-06T02:38:57.592Z,97952.78
2022-12-06T02:41:32.696Z,97954.13
2022-12-06T02:44:02.075Z,97950.69
2022-12-06T02:46:35.558Z,97940.63
2022-12-06T02:49:04.500Z,97936.66
2022-12-06T02:51:35.220Z,97947.00
2022-12-06T02:54:06.269Z,97936.94
2022-12-06T02:56:35.250Z,97946.50
2022-12-06T02:59:02.726Z,97941.84
2022-12-06T03:01:35.093Z,97933.16
2022-12-06T03:04:34.872Z,97937.31
2022-12-06T03:07:20.187Z,97939.34
2022-12-06T03:09:58.544Z,97938.34
2022-12-06T03:12:34.092Z,97941.00
2022-12-06T03:15:09.914Z,97944.72
2022-12-06T03:17:45.694Z,97939.78
2022-12-06T03:20:20.411Z,97936.34
2022-12-06T03:22:52.848Z,97938.78
2022-12-06T03:25:20.668Z,97933.25
2022-12-06T03:27:50.504Z,97940.88
2022-12-06T03:30:18.777Z,97935.03
2022-12-06T03:32:50.535Z,97933.06
2022-12-06T03:35:22.727Z,97927.91
2022-12-06T03:37:56.735Z,97926.69
2022-12-06T03:40:28.215Z,97920.34
2022-12-06T03:42:56.365Z,97923.59
2022-12-06T03:45:33.795Z,97920.25
2022-12-06T03:48:08.207Z,97925.53
2022-12-06T03:50:40.691Z,97925.50
2022-12-06T03:53:08.218Z,97924.81
2022-12-06T03:55:35.659Z,97927.78
2022-12-06T03:58:03.345Z,97921.19
2022-12-06T04:00:31.024Z,97911.91
2022-12-06T04:02:58.455Z,97915.38
2022-12-06T04:05:27.284Z,97917.69
2022-12-06T04:07:54.784Z,97915.59
2022-12-06T04:10:22.843Z,97921.06
2022-12-06T04:13:02.530Z,97911.94
2022-12-06T04:15:32.024Z,97906.31
2022-12-06T04:18:11.096Z,97906.63
2022-12-06T04:21:02.327Z,97900.88
2022-12-06T04:23:30.954Z,97902.44
2022-12-06T04:25:58.505Z,97900.41
2022-12-06T04:28:43.920Z,97900.34
2022-12-06T04:31:29.134Z,97893.59
2022-12-06T04:34:14.555Z,97897.28
2022-12-06T04:37:00.892Z,97889.13
2022-12-06T04:39:28.388Z,97877.06
2022-12-06T04:42:13.928Z,97880.25
2022-12-06T04:44:41.540Z,97878.03
2022-12-06T04:47:09.754Z,97876.91
2022-12-06T04:49:38.203Z,97872.78
2022-12-06T04:52:08.538Z,97873.59
2022-12-06T04:54:36.755Z,97875.41
2022-12-06T04:57:11.053Z,97874.94
2022-12-06T04:59:39.632Z,97867.75
2022-12-06T05:02:09.723Z,97876.41
2022-12-06T05:04:37.282Z,97876.00
2022-12-06T05:07:05.167Z,97868.16
2022-12-06T05:09:33.963Z,97863.31
2022-12-06T05:12:01.457Z,97859.88
2022-12-06T05:14:28.914Z,97856.41
2022-12-06T05:16:56.374Z,97864.13
2022-12-06T05:19:23.958Z,97862.19
2022-12-06T05:21:51.367Z,97861.16
2022-12-06T05:24:18.794Z,97854.13
2022-12-06T05:26:47.569Z,97860.19
2022-12-06T05:29:15.009Z,97856.31
2022-12-06T05:31:42.475Z,97851.63
2022-12-06T05:34:10.985Z,97851.50
2022-12-06T05:36:38.470Z,97852.94
2022-12-06T05:39:05.886Z,97851.66
2022-12-06T05:41:33.939Z,97850.88
2022-12-06T05:44:02.744Z,97853.03
2022-12-06T05:46:30.327Z,97852.56
2022-12-06T05:48:57.835Z,97849.66
2022-12-06T05:51:25.243Z,97846.03
2022-12-06T05:53:52.675Z,97849.44
2022-12-06T05:56:20.123Z,97854.31
2022-12-06T05:58:47.562Z,97849.81
2022-12-06T06:01:16.355Z,97853.56
2022-12-06T06:03:47.534Z,97848.75
2022-12-06T06:06:15.777Z,97857.72
2022-12-06T06:08:43.251Z,97849.41
2022-12-06T06:11:10.681Z,97856.25
2022-12-06T06:13:38.217Z,97850.03
2022-12-06T06:16:06.288Z,97852.69
2022-12-06T06:18:35.100Z,97855.72
2022-12-06T06:21:03.792Z,97852.47
2022-12-06T06:23:31.392Z,97851.56
2022-12-06T06:25:58.895Z,97855.59
2022-12-06T06:28:26.411Z,97856.25
2022-12-06T06:30:53.876Z,97855.19
2022-12-06T06:33:23.685Z,97859.31
2022-12-06T06:35:52.447Z,97857.72
2022-12-06T06:38:19.907Z,97861.72
2022-12-06T06:40:47.415Z,97855.88
2022-12-06T06:43:21.080Z,97866.03
2022-12-06T06:45:53.200Z,97857.72
2022-12-06T06:48:21.056Z,97865.03
2022-12-06T06:50:52.588Z,97857.19
2022-12-06T06:53:24.975Z,97872.63
2022-12-06T06:55:53.831Z,97874.44
2022-12-06T06:58:21.381Z,97878.75
2022-12-06T07:00:53.483Z,97873.16
2022-12-06T07:03:20.989Z,97865.59
2022-12-06T07:05:52.644Z,97863.91
2022-12-06T07:08:20.335Z,97864.75
2022-12-06T07:10:49.695Z,97864.81
2022-12-06T07:13:17.284Z,97874.81
2022-12-06T07:15:44.809Z,97870.03
2022-12-06T07:18:12.263Z,97874.59
2022-12-06T07:20:39.697Z,97865.88
2022-12-06T07:23:07.093Z,97868.53
2022-12-06T07:25:34.546Z,97870.88
2022-12-06T07:28:03.325Z,97862.41
2022-12-06T07:30:30.924Z,97863.97
2022-12-06T07:32:58.694Z,97860.88
2022-12-06T07:35:41.974Z,97861.28
2022-12-06T07:38:13.876Z,97856.56
2022-12-06T07:41:03.525Z,97862.16
2022-12-06T07:43:55.850Z,97863.16
2022-12-06T07:46:23.307Z,97867.03
2022-12-06T07:48:50.830Z,97867.09
2022-12-06T07:51:19.149Z,97875.44
2022-12-06T07:53:46.576Z,97874.44
2022-12-06T07:56:14.008Z,97868.44
2022-12-06T07:58:43.368Z,97868.16
2022-12-06T08:01:10.871Z,97869.22
2022-12-06T08:03:40.448Z,97870.41
2022-12-06T08:06:08.840Z,97866.81
2022-12-06T08:08:36.988Z,97864.50
2022-12-06T08:11:07.175Z,97859.53
2022-12-06T08:13:36.137Z,97855.00
2022-12-06T08:16:06.812Z,97856.41
2022-12-06T08:18:34.344Z,97858.16
2022-12-06T08:21:01.910Z,97860.50
2022-12-06T08:23:33.911Z,97858.00
2022-12-06T08:26:05.165Z,97864.06
2022-12-06T08:28:33.872Z,97861.41
2022-12-06T08:31:05.885Z,97865.00
2022-12-06T08:33:35.806Z,97865.06
2022-12-06T08:36:08.897Z,97867.66
2022-12-06T08:38:36.752Z,97865.44
2022-12-06T08:41:04.599Z,97866.19
2022-12-06T08:43:32.512Z,97872.94
2022-12-06T08:46:00.117Z,97869.81
2022-12-06T08:48:28.095Z,97871.03
2022-12-06T08:50:57.018Z,97864.66
2022-12-06T08:53:24.463Z,97870.06
2022-12-06T08:56:02.290Z,97860.66
2022-12-06T08:58:30.200Z,97866.19
2022-12-06T09:00:57.704Z,97869.31
2022-12-06T09:03:25.160Z,97874.75
2022-12-06T09:05:52.586Z,97869.00
2022-12-06T09:08:21.435Z,97869.53
2022-12-06T09:10:48.924Z,97873.38
2022-12-06T09:13:16.335Z,97871.19
2022-12-06T09:15:43.886Z,97868.53
2022-12-06T09:18:11.693Z,97864.91
2022-12-06T09:20:40.513Z,97868.00
2022-12-06T09:23:07.982Z,97863.91
2022-12-06T09:25:36.759Z,97863.31
2022-12-06T09:28:05.339Z,97865.75
2022-12-06T09:30:32.793Z,97873.41
2022-12-06T09:33:00.246Z,97871.94
2022-12-06T09:35:27.728Z,97870.81
2022-12-06T09:37:55.427Z,97870.88
2022-12-06T09:40:32.088Z,97872.16
2022-12-06T09:43:12.938Z,97877.38
2022-12-06T09:46:11.416Z,97871.31
2022-12-06T09:49:08.221Z,97873.00
2022-12-06T09:51:50.587Z,97874.13
2022-12-06T09:54:38.755Z,97867.63
2022-12-06T09:57:09.135Z,97875.56
2022-12-06T09:59:48.502Z,97870.34
2022-12-06T10:02:32.925Z,97866.03
2022-12-06T10:05:20.190Z,97863.63
2022-12-06T10:07:57.993Z,97862.78
2022-12-06T10:10:35.260Z,97861.38
2022-12-06T10:13:13.026Z,97859.78
2022-12-06T10:15:53.556Z,97861.59
2022-12-06T10:18:35.720Z,97866.81
2022-12-06T10:21:14.123Z,97862.75
2022-12-06T10:24:01.634Z,97856.34
2022-12-06T10:26:38.293Z,97854.53
2022-12-06T10:29:15.179Z,97851.72
2022-12-06T10:31:55.992Z,97854.19
2022-12-06T10:34:29.878Z,97859.19
2022-12-06T10:37:04.447Z,97850.41
2022-12-06T10:39:44.942Z,97847.53
2022-12-06T10:42:25.109Z,97852.91
2022-12-06T10:44:58.158Z,97846.00
2022-12-06T10:47:31.767Z,97848.25
2022-12-06T10:50:04.919Z,97848.13
2022-12-06T10:52:39.412Z,97851.84
2022-12-06T10:55:19.047Z,97848.59
2022-12-06T10:57:53.108Z,97843.69
2022-12-06T11:00:23.251Z,97848.25
2022-12-06T11:02:58.612Z,97837.00
2022-12-06T11:05:31.467Z,97842.75
2022-12-06T11:08:06.917Z,97850.16
2022-12-06T11:10:36.240Z,97839.47
2022-12-06T11:13:16.177Z,97845.31
2022-12-06T11:15:49.675Z,97829.88
2022-12-06T11:18:19.462Z,97838.81
2022-12-06T11:20:51.558Z,97838.16
2022-12-06T11:23:26.695Z,97836.56
2022-12-06T11:26:02.328Z,97829.28
2022-12-06T11:28:37.442Z,97829.00
2022-12-06T11:31:13.877Z,97826.19
2022-12-06T11:33:42.834Z,97829.50
2022-12-06T11:36:11.315Z,97825.34
2022-12-06T11:38:41.922Z,97823.78
2022-12-06T11:41:14.051Z,97827.06
2022-12-06T11:43:41.995Z,97821.19
2022-12-06T11:46:11.993Z,97817.38
2022-12-06T11:48:39.668Z,97818.66
2022-12-06T11:51:17.477Z,97821.16
2022-12-06T11:53:55.454Z,97820.44
2022-12-06T11:56:26.437Z,97820.63
2022-12-06T11:59:04.428Z,97822.50
2022-12-06T12:01:40.684Z,97825.75
2022-12-06T12:04:25.824Z,97820.56
2022-12-06T12:06:59.244Z,97813.53
2022-12-06T12:09:31.246Z,97817.13
2022-12-06T12:12:04.730Z,97819.06
2022-12-06T12:14:38.510Z,97815.97
2022-12-06T12:17:16.772Z,97811.41
2022-12-06T12:19:48.404Z,97808.56
2022-12-06T12:22:26.404Z,97805.06
2022-12-06T12:27:48.145Z,97796.69
2022-12-06T12:30:33.080Z,97798.19
2022-12-06T12:33:15.369Z,97802.19
2022-12-06T12:35:44.544Z,97789.25
2022-12-06T12:38:23.090Z,97799.91
2022-12-06T12:40:52.990Z,97803.72
2022-12-06T12:43:23.970Z,97801.63
2022-12-06T12:46:09.031Z,97798.97
2022-12-06T12:48:37.715Z,97789.66
2022-12-06T12:51:07.530Z,97777.06
2022-12-06T12:53:40.534Z,97790.75
2022-12-06T12:56:10.869Z,97786.44
2022-12-06T12:58:38.528Z,97792.34
2022-12-06T13:01:18.318Z,97789.84
2022-12-06T13:03:51.451Z,97800.59
2022-12-06T13:06:28.214Z,97795.66
2022-12-06T13:09:00.399Z,97800.63
2022-12-06T13:11:29.265Z,97795.41
2022-12-06T13:13:57.345Z,97799.84
2022-12-06T13:16:29.744Z,97797.78
2022-12-06T13:18:59.241Z,97796.38
2022-12-06T13:21:34.780Z,97799.03
2022-12-06T13:24:08.833Z,97793.31
2022-12-06T13:26:40.535Z,97787.97
2022-12-06T13:29:21.268Z,97792.88
2022-12-06T13:31:51.448Z,97789.56
2022-12-06T13:34:24.564Z,97791.13
2022-12-06T13:36:52.727Z,97786.56
2022-12-06T13:39:42.922Z,97800.94
2022-12-06T13:42:40.574Z,97790.00
2022-12-06T13:45:42.204Z,97793.41
2022-12-06T13:48:49.896Z,97786.97
2022-12-06T13:51:59.690Z,97791.50
2022-12-06T13:54:32.040Z,97793.56
2022-12-06T13:57:03.947Z,97796.72
2022-12-06T13:59:41.256Z,97793.50
2022-12-06T14:02:51.542Z,97801.72
2022-12-06T14:06:04.067Z,97793.28
2022-12-06T14:08:37.447Z,97790.97
2022-12-06T14:11:23.820Z,97802.09
2022-12-06T14:14:03.495Z,97792.88
2022-12-06T14:16:36.250Z,97806.00
2022-12-06T14:19:13.224Z,97802.66
2022-12-06T14:21:43.667Z,97796.81
2022-12-06T14:24:27.008Z,97799.53
2022-12-06T14:26:54.479Z,97809.75
2022-12-06T14:29:25.720Z,97816.28
2022-12-06T14:31:53.190Z,97818.44
2022-12-06T14:34:26.121Z,97816.63
2022-12-06T14:36:54.050Z,97816.94
2022-12-06T14:39:24.997Z,97817.91
2022-12-06T14:42:11.371Z,97813.56
2022-12-06T14:44:40.243Z,97809.97
2022-12-06T14:47:08.396Z,97811.66
2022-12-06T14:49:54.826Z,97815.97
2022-12-06T14:52:25.471Z,97817.88
2022-12-06T14:54:53.812Z,97820.78
2022-12-06T14:57:28.530Z,97815.97
2022-12-06T15:00:27.016Z,97810.50
2022-12-06T15:03:03.210Z,97810.38
2022-12-06T15:05:33.257Z,97814.28
2022-12-06T15:08:18.141Z,97811.47
2022-12-06T15:10:55.444Z,97807.94
2022-12-06T15:13:22.820Z,97805.06
2022-12-06T15:16:03.990Z,97806.44
2022-12-06T15:18:34.011Z,97806.19
2022-12-06T15:21:01.849Z,97804.38
2022-12-06T15:23:40.873Z,97804.47
2022-12-06T15:26:12.254Z,97807.38
2022-12-06T15:28:39.918Z,97803.41
2022-12-06T15:31:17.108Z,97794.19
2022-12-06T15:33:44.602Z,97798.06
2022-12-06T15:36:17.618Z,97803.09
2022-12-06T15:38:45.338Z,97803.78
2022-12-06T15:41:17.042Z,97802.31
2022-12-06T15:43:45.020Z,97801.59
2022-12-06T15:46:20.521Z,97798.53
2022-12-06T15:48:48.379Z,97804.13
2022-12-06T15:51:20.636Z,97803.78
2022-12-06T15:53:53.305Z,97808.00
2022-12-06T15:56:24.086Z,97808.34
2022-12-06T15:58:52.042Z,97813.03
2022-12-06T16:01:24.185Z,97807.91
2022-12-06T16:03:54.161Z,97807.53
2022-12-06T16:06:23.120Z,97809.81
2022-12-06T16:08:50.863Z,97808.94
2022-12-06T16:11:20.908Z,97809.00
2022-12-06T16:13:50.853Z,97807.44
2022-12-06T16:16:20.058Z,97816.88
2022-12-06T16:18:50.143Z,97809.28
2022-12-06T16:21:23.107Z,97813.31
2022-12-06T16:24:17.460Z,97811.22
2022-12-06T16:26:47.602Z,97812.38
2022-12-06T16:29:17.580Z,97820.31
2022-12-06T16:31:45.407Z,97810.69
2022-12-06T16:34:15.280Z,97809.53
2022-12-06T16:36:57.424Z,97811.19
2022-12-06T16:39:25.635Z,97814.59
2022-12-06T16:41:53.087Z,97818.53
2022-12-06T16:44:20.801Z,97812.38
2022-12-06T16:46:51.831Z,97819.16
2022-12-06T16:49:45.210Z,97820.97
2022-12-06T16:52:10.338Z,97820.34
2022-12-06T16:54:40.705Z,97821.44
2022-12-06T16:57:08.182Z,97815.50
2022-12-06T16:59:36.064Z,97823.72
2022-12-06T17:02:06.067Z,97816.22
2022-12-06T17:04:38.795Z,97816.97
2022-12-06T17:07:06.230Z,97818.88
2022-12-06T17:09:33.674Z,97824.53
2022-12-06T17:12:06.120Z,97822.34
2022-12-06T17:14:33.677Z,97820.31
2022-12-06T17:17:03.743Z,97820.84
2022-12-06T17:19:32.990Z,97817.06
2022-12-06T17:22:02.076Z,97818.88
2022-12-06T17:24:29.650Z,97820.78
2022-12-06T17:26:59.112Z,97820.78
2022-12-06T17:29:26.871Z,97819.50
2022-12-06T17:31:54.373Z,97818.53
2022-12-06T17:34:22.413Z,97820.63
2022-12-06T17:36:50.191Z,97819.91
2022-12-06T17:39:22.923Z,97824.53
2022-12-06T17:42:08.243Z,97810.38
2022-12-06T17:44:35.750Z,97816.97
2022-12-06T17:47:03.603Z,97822.91
2022-12-06T17:49:31.275Z,97820.66
2022-12-06T17:51:58.754Z,97825.63
2022-12-06T17:54:27.567Z,97826.97
2022-12-06T17:56:56.069Z,97831.38
2022-12-06T17:59:25.858Z,97827.31
2022-12-06T18:02:14.574Z,97830.56
2022-12-06T18:04:44.253Z,97825.00
2022-12-06T18:07:12.785Z,97823.94
2022-12-06T18:09:41.832Z,97824.72
2022-12-06T18:12:09.598Z,97832.91
2022-12-06T18:14:37.079Z,97833.69
2022-12-06T18:20:39.691Z,97833.88
2022-12-06T18:23:07.163Z,97836.84
2022-12-06T18:25:39.623Z,97834.63
2022-12-06T18:28:07.667Z,97837.06
2022-12-06T18:30:35.639Z,97831.00
2022-12-06T18:33:03.922Z,97835.16
2022-12-06T18:35:31.368Z,97830.06
2022-12-06T18:37:58.814Z,97831.84
2022-12-06T18:40:26.299Z,97838.78
2022-12-06T18:42:55.100Z,97829.09
2022-12-06T18:45:22.535Z,97827.03
2022-12-06T18:47:50.101Z,97831.38
2022-12-06T18:50:17.711Z,97835.81
2022-12-06T18:52:45.199Z,97835.69
2022-12-06T18:55:12.660Z,97831.38
2022-12-06T18:57:40.148Z,97835.47
2022-12-06T19:00:10.366Z,97834.22
2022-12-06T19:02:37.873Z,97834.63
2022-12-06T19:08:53.571Z,97833.88
2022-12-06T19:11:21.901Z,97833.34
2022-12-06T19:13:53.869Z,97833.44
2022-12-06T19:16:26.547Z,97831.84
2022-12-06T19:18:55.977Z,97835.81
2022-12-06T19:21:24.162Z,97835.69
2022-12-06T19:23:53.780Z,97841.75
2022-12-06T19:26:21.619Z,97839.19
2022-12-06T19:28:49.281Z,97842.88
2022-12-06T19:31:17.132Z,97844.16
2022-12-06T19:33:47.191Z,97841.19
2022-12-06T19:36:16.200Z,97842.34
2022-12-06T19:38:43.858Z,97838.50
2022-12-06T19:41:13.365Z,97834.69
2022-12-06T19:43:58.513Z,97842.06
2022-12-06T19:46:28.110Z,97842.13
2022-12-06T19:48:59.108Z,97834.75
2022-12-06T19:51:28.832Z,97834.31
2022-12-06T19:53:57.810Z,97837.78
2022-12-06T19:56:26.663Z,97846.63
2022-12-06T19:58:56.559Z,97836.69
2022-12-06T20:01:25.812Z,97836.53
2022-12-06T20:03:54.385Z,97839.47
2022-12-06T20:06:26.208Z,97835.56
2022-12-06T20:08:55.213Z,97837.81
2022-12-06T20:11:41.439Z,97837.75
2022-12-06T20:14:11.461Z,97835.50
2022-12-06T20:16:39.816Z,97834.38
2022-12-06T20:19:08.100Z,97830.94
2022-12-06T20:21:37.217Z,97835.72
2022-12-06T20:24:07.835Z,97834.84
2022-12-06T20:26:35.319Z,97835.31
2022-12-06T20:29:03.068Z,97836.63
2022-12-06T20:31:31.909Z,97845.66
2022-12-06T20:34:01.073Z,97842.09
2022-12-06T20:36:30.331Z,97845.66
2022-12-06T20:38:59.959Z,97838.63
2022-12-06T20:41:30.734Z,97848.97
2022-12-06T20:43:58.875Z,97841.00
2022-12-06T20:46:28.485Z,97847.78
2022-12-06T20:48:57.230Z,97836.09
2022-12-06T20:51:26.841Z,97838.59
2022-12-06T20:54:00.402Z,97835.34
2022-12-06T20:56:30.199Z,97822.44
2022-12-06T20:58:59.768Z,97825.13
2022-12-06T21:01:29.513Z,97837.69
2022-12-06T21:03:57.420Z,97838.34
2022-12-06T21:06:26.029Z,97828.16
2022-12-06T21:08:54.012Z,97828.41
2022-12-06T21:11:24.995Z,97818.75
2022-12-06T21:13:57.335Z,97826.00
2022-12-06T21:16:26.993Z,97822.31
2022-12-06T21:18:59.024Z,97826.88
2022-12-06T21:21:29.185Z,97838.63
2022-12-06T21:23:59.981Z,97839.44
2022-12-06T21:26:29.451Z,97835.34
2022-12-06T21:28:56.935Z,97845.22
2022-12-06T21:31:28.190Z,97839.16
2022-12-06T21:33:56.055Z,97833.34
2022-12-06T21:36:23.596Z,97835.38
2022-12-06T21:38:53.196Z,97833.25
2022-12-06T21:41:21.360Z,97830.91
2022-12-06T21:43:50.579Z,97828.69
2022-12-06T21:46:20.832Z,97826.34
2022-12-06T21:48:51.357Z,97828.63
2022-12-06T21:51:19.671Z,97827.81
2022-12-06T21:53:47.751Z,97818.03
2022-12-06T21:56:17.327Z,97826.47
2022-12-06T21:58:45.090Z,97825.09
2022-12-06T22:01:15.624Z,97826.69
2022-12-06T22:03:43.647Z,97835.94
2022-12-06T22:06:13.087Z,97826.94
2022-12-06T22:08:42.086Z,97829.63
2022-12-06T22:11:10.135Z,97817.53
2022-12-06T22:13:37.977Z,97821.38
2022-12-06T22:16:07.313Z,97818.81
2022-12-06T22:18:42.683Z,97822.78
2022-12-06T22:21:14.619Z,97825.06
2022-12-06T22:23:42.116Z,97822.81
2022-12-06T22:26:13.208Z,97817.03
2022-12-06T22:28:44.138Z,97816.16
2022-12-06T22:31:13.645Z,97819.41
2022-12-06T22:33:42.862Z,97817.25
2022-12-06T22:36:11.274Z,97822.44
2022-12-06T22:38:39.066Z,97827.47
2022-12-06T22:41:07.693Z,97819.25
2022-12-06T22:43:35.535Z,97822.53
2022-12-06T22:46:05.318Z,97824.53
2022-12-06T22:48:32.843Z,97831.03
2022-12-06T22:51:13.408Z,97823.91
2022-12-06T22:53:42.205Z,97822.63
2022-12-06T22:56:10.544Z,97824.94
2022-12-06T22:58:38.108Z,97828.78
2022-12-06T23:01:16.099Z,97818.94
2022-12-06T23:03:45.419Z,97820.97
2022-12-06T23:06:14.878Z,97812.72
2022-12-06T23:08:42.462Z,97821.31
2022-12-06T23:11:13.152Z,97823.31
2022-12-06T23:13:43.801Z,97818.44
2022-12-06T23:16:13.787Z,97816.84
2022-12-06T23:18:41.688Z,97821.69
2022-12-06T23:21:12.316Z,97822.63
2022-12-06T23:23:42.423Z,97827.94
2022-12-06T23:26:12.136Z,97822.13
2022-12-06T23:28:39.904Z,97821.25
2022-12-06T23:31:10.571Z,97824.81
2022-12-06T23:33:38.332Z,97821.38
2022-12-06T23:36:08.635Z,97820.94
2022-12-06T23:38:36.723Z,97824.38
2022-12-06T23:41:07.392Z,97826.75
2022-12-06T23:43:35.877Z,97835.25
2022-12-06T23:46:07.477Z,97833.69
2022-12-06T23:48:35.572Z,97819.72
2022-12-06T23:51:05.571Z,97817.59
2022-12-06T23:53:33.890Z,97823.28
2022-12-06T23:56:04.303Z,97821.03
2022-12-06T23:58:33.785Z,97817.78
